Hlavní strana
METAR-TAF:

METAR-TAF

Letiště :

Boa Vista, Kapverdy

zeměpisná šířka: 16-08-15N, zeměpisná délka: 22-53-22W, výška: 21 m

Aktuální stav počasí

Zpráva byla vytvořena před 11 hodinami a 10 minutami, v 19:00 UTC
Severoseverovýchodní vítr 14 kt
Teplota 24°C
Vlhkost vzduchu 69%
Tlak 1016 hPa
Viditelnost 10 km a více
Oblačno až skoro zataženo ve výšce 1400 ft

METAR: GVBA 191900Z 03014KT 9999 BKN014 24/18 Q1016 NOSIG

Čas: 05:10 (06:10 UTC)

Předpověď počasí

Zpráva byla vytvořena před 7 hodinami a 10 minutami, v 23:00 UTC
Předpověď platná od 20 v 00 UTC do 21 v 06 UTC
Severoseverovýchodní vítr 18 kt
Viditelnost 10 km a více
Oblačno až skoro zataženo ve výšce 1400 ft
Dočasný
od 20 v 02 UTC do 20 v 09 UTC
Severoseverovýchodní vítr 8 kt

TAF: GVBA 192300Z 2000/2106 02018KT 9999 BKN014 TEMPO 2002/2009 03008KT

Stav a předpovědi počasí z více než 4 000 letišť (zprávy METAR a TAF).

Červené a žluté tečky na mapě představují dostupné meteorologické stanice.

Když kurzor umístíte na tečku, zobrazí se název stanice.

Pak kliknutím zobrazíte stav a předpověď počasí.

Chcete-li změnit mapu, kliknutím na zelené tlačítko se znaménkem +mapu přiblížíte, kliknutím na zelené tlačítko se znaménkem – mapu oddálíte a kliknutím na zelené šipky přejdete na sousední mapy.


METAR-TAF: